Los Angeles International Airport

METAR KLAX TAF KLAX
11 °C
°C
-
°C
12m
Age
15:05:28
LT
14:05
UTC
0 ft

1,000

2,000

3,000

4,000

5,000

BKN 1,500
BKN 1,900
MVFR
<?= Yii::t('app', 'Wind direction') ?> <?= Yii::t('app', 'of'); ?>
060°
06:52
Sunrise
77%
Humidity
Wind shear
Closed/Snow
RWY visual range
RWY condition
Vert. visibility
Min. visibility
CAVOK
Trend
Correction
Special report
29.99 inHg
QNH
METAR KLAX 281353Z 06006KT 8SM BKN015 BKN019 11/07 A2999 RMK AO2 SLP154 T01110067 $
Broken clouds
2 kt
2 kt
06:00
MVFR
3 kt
07:00
MVFR
3 kt
08:00
MVFR
3 kt
09:00
VFR
3 kt
10:00
VFR
3 kt
11:00
VFR
6 kt
12:00
VFR
6 kt
8 mi
Visibility
1,500 ft
Ceiling
6 kt
Wind
metar-taf.com/KLAX

Metar-Taf.com

Visual decoder

We and third parties follow your internet behavior on our website with cookies. If you continue, we assume you agree with our cookie policy.